Time;durP1;ratioP1;P1;durP2;ratioP2;P2;SDS_P1;SDS_P2;PMS_P1;PMS_P2;Temp;Humidity;BMP_temperature;BMP_pressure;BME280_temperature;BME280_humidity;BME280_pressure;Samples;Min_cycle;Max_cycle;Signal;HPM_P1;HPM_P2
2022/09/13 00:08:22;;;;;;;4.13;1.85;;;14.90;99.90;;;;;;20989033;28;20185;-77
2022/09/13 00:18:24;;;;;;;2.80;1.73;;;14.90;99.90;;;;;;20993529;28;20511;-77
2022/09/13 00:28:24;;;;;;;;;;;14.90;99.90;;;;;;21005406;28;20132;-76
2022/09/13 00:38:25;;;;;;;3.07;1.80;;;14.90;99.90;;;;;;21004304;28;20383;-76
2022/09/13 00:48:26;;;;;;;3.93;1.67;;;14.70;99.90;;;;;;21003357;28;20040;-76
2022/09/13 00:58:49;;;;;;;5.80;1.83;;;14.70;99.90;;;;;;21005317;28;20032;-76
2022/09/13 01:08:52;;;;;;;2.40;1.60;;;14.70;99.90;;;;;;20983965;28;20048;-76
2022/09/13 01:18:54;;;;;;;2.88;1.92;;;14.20;99.90;;;;;;21000640;28;20053;-76
2022/09/13 01:29:17;;;;;;;3.10;1.47;;;13.90;99.90;;;;;;20999557;28;20115;-77
2022/09/13 01:39:37;;;;;;;6.60;1.70;;;14.00;99.90;;;;;;20986147;28;20068;-76
2022/09/13 01:50:00;;;;;;;2.58;1.67;;;14.10;99.90;;;;;;20998437;28;20033;-77
2022/09/13 02:00:13;;;;;;;3.03;1.75;;;14.10;99.90;;;;;;20998067;28;20033;-77
2022/09/13 02:10:23;;;;;;;4.07;2.03;;;13.90;99.90;;;;;;20996880;28;20041;-77
2022/09/13 02:20:29;;;;;;;4.20;1.75;;;13.70;99.90;;;;;;20996152;28;20036;-77
2022/09/13 02:30:33;;;;;;;6.50;2.00;;;13.60;99.90;;;;;;20995389;28;20033;-77
2022/09/13 02:40:42;;;;;;;8.32;2.13;;;13.50;99.90;;;;;;20993566;28;20037;-77
2022/09/13 02:50:56;;;;;;;3.75;2.10;;;13.40;99.90;;;;;;20993763;28;20040;-77
2022/09/13 03:00:57;;;;;;;5.38;2.45;;;13.60;99.90;;;;;;20997390;28;20294;-77
2022/09/13 03:11:17;;;;;;;7.73;2.87;;;13.40;99.90;;;;;;20983709;22;20053;-79
2022/09/13 03:21:36;;;;;;;5.15;3.22;;;13.30;99.90;;;;;;20858620;28;20076;-79
2022/09/13 03:31:54;;;;;;;15.35;3.22;;;13.30;99.90;;;;;;20911252;28;20364;-79
2022/09/13 03:41:59;;;;;;;4.68;2.55;;;13.30;99.90;;;;;;20893534;28;20045;-78
2022/09/13 03:52:01;;;;;;;8.57;3.00;;;13.20;99.90;;;;;;20916165;28;20099;-79
2022/09/13 04:02:02;;;;;;;;;;;13.00;99.90;;;;;;20902414;28;20530;-79
2022/09/13 04:12:03;;;;;;;6.25;2.88;;;12.90;99.90;;;;;;20910847;28;19943;-79
2022/09/13 04:22:04;;;;;;;4.53;2.90;;;12.90;99.90;;;;;;20905448;28;20079;-79
2022/09/13 04:32:05;;;;;;;8.13;2.87;;;12.90;99.90;;;;;;20894355;28;20045;-79
2022/09/13 04:42:06;;;;;;;4.27;3.00;;;12.90;99.90;;;;;;20912947;28;20040;-78
2022/09/13 04:52:07;;;;;;;7.50;2.70;;;12.80;99.90;;;;;;20913729;28;20033;-78
2022/09/13 05:02:08;;;;;;;4.10;3.10;;;12.70;99.90;;;;;;20914057;28;20037;-79
2022/09/13 05:12:10;;;;;;;8.33;3.00;;;12.70;99.90;;;;;;20931718;28;20043;-79
2022/09/13 05:22:11;;;;;;;6.78;3.17;;;12.80;99.90;;;;;;20929013;28;20040;-79
2022/09/13 05:32:12;;;;;;;7.30;3.40;;;12.90;99.90;;;;;;20915832;28;20091;-80
2022/09/13 05:42:12;;;;;;;9.67;3.47;;;13.10;99.90;;;;;;20935096;28;20032;-80
2022/09/13 05:52:13;;;;;;;6.13;3.07;;;13.40;99.90;;;;;;20934353;28;20494;-80
2022/09/13 06:02:14;;;;;;;4.77;3.20;;;13.90;99.90;;;;;;20930635;28;20033;-78
2022/09/13 06:12:15;;;;;;;12.77;3.37;;;14.00;99.90;;;;;;20931282;28;20047;-79
2022/09/13 06:22:15;;;;;;;9.23;3.23;;;14.20;99.90;;;;;;20913597;28;20399;-78
2022/09/13 06:32:16;;;;;;;8.67;3.43;;;14.50;99.90;;;;;;20929129;28;20040;-79
2022/09/13 06:42:17;;;;;;;6.87;3.60;;;15.30;99.90;;;;;;20897507;28;20037;-78
2022/09/13 06:52:18;;;;;;;6.20;3.30;;;15.60;99.90;;;;;;20921532;28;20041;-79
2022/09/13 07:02:19;;;;;;;8.40;3.03;;;16.30;99.90;;;;;;20928575;28;20036;-79
2022/09/13 07:12:20;;;;;;;8.07;3.07;;;17.00;99.90;;;;;;20930429;28;20079;-80
2022/09/13 07:22:25;;;;;;;7.43;2.70;;;17.20;99.90;;;;;;20929389;28;20399;-79
2022/09/13 07:32:26;;;;;;;5.93;2.60;;;17.80;99.90;;;;;;20929894;28;20474;-79
2022/09/13 07:42:27;;;;;;;3.57;2.63;;;19.00;99.90;;;;;;20912438;28;20049;-79
2022/09/13 07:52:28;;;;;;;9.07;2.70;;;19.60;99.90;;;;;;20895737;28;20037;-79
2022/09/13 08:02:28;;;;;;;3.33;2.67;;;19.80;99.90;;;;;;20911413;28;20047;-79
2022/09/13 08:12:29;;;;;;;4.10;2.80;;;20.20;99.90;;;;;;20927541;28;20041;-79
2022/09/13 08:22:30;;;;;;;3.33;2.83;;;21.10;99.90;;;;;;20912530;28;20040;-79
2022/09/13 08:32:31;;;;;;;3.90;2.93;;;21.10;99.90;;;;;;20968063;28;20483;-80
2022/09/13 08:42:52;;;;;;;5.93;2.53;;;20.70;99.90;;;;;;20978822;28;20037;-80
2022/09/13 08:53:17;;;;;;;5.10;2.10;;;22.70;99.90;;;;;;20966599;28;20522;-80
2022/09/13 09:03:25;;;;;;;4.88;2.28;;;23.60;99.90;;;;;;20843604;28;20154;-80
2022/09/13 09:13:40;;;;;;;7.00;2.20;;;23.00;99.90;;;;;;21035573;22;20142;-79
2022/09/13 09:23:50;;;;;;;4.35;2.20;;;24.50;99.90;;;;;;21021070;28;20064;-80
2022/09/13 09:33:56;;;;;;;2.60;1.52;;;25.20;99.90;;;;;;21018130;28;20064;-79
2022/09/13 09:44:20;;;;;;;4.00;1.75;;;25.50;99.90;;;;;;21039123;28;20061;-80
2022/09/13 09:54:22;;;;;;;3.30;1.70;;;25.90;99.90;;;;;;21083077;28;20040;-80
2022/09/13 10:04:24;;;;;;;4.18;1.85;;;27.40;99.90;;;;;;21097300;28;20538;-79
2022/09/13 10:14:45;;;;;;;13.40;1.90;;;27.50;99.90;;;;;;21024835;28;20577;-78
2022/09/13 10:24:47;;;;;;;2.30;1.42;;;27.50;99.90;;;;;;21011326;28;20541;-80
2022/09/13 10:34:49;;;;;;;8.50;1.55;;;28.00;99.90;;;;;;21012396;28;20094;-80
2022/09/13 10:44:56;;;;;;;3.90;1.60;;;27.30;99.90;;;;;;21010956;28;20036;-79
2022/09/13 10:55:19;;;;;;;3.08;1.55;;;26.70;99.90;;;;;;21009510;28;20051;-79
2022/09/13 11:05:58;;;;;;;3.95;1.48;;;26.30;99.90;;;;;;21006274;28;20033;-77
2022/09/13 11:16:22;;;;;;;2.33;1.45;;;27.20;99.90;;;;;;21021635;28;20135;-79
2022/09/13 11:26:36;;;;;;;3.38;1.65;;;28.10;99.90;;;;;;21008339;28;20520;-78
2022/09/13 11:36:57;;;;;;;2.47;1.17;;;27.00;99.90;;;;;;20970054;28;20095;-78
2022/09/13 11:47:12;;;;;;;3.05;1.40;;;27.40;99.90;;;;;;21004135;28;20045;-78
2022/09/13 11:57:34;;;;;;;6.07;1.30;;;28.40;99.90;;;;;;20999936;28;20322;-79
2022/09/13 12:07:49;;;;;;;8.70;1.30;;;28.50;99.90;;;;;;21003809;28;20115;-81
2022/09/13 12:17:59;;;;;;;6.82;1.50;;;29.40;99.90;;;;;;21020512;28;20079;-80
2022/09/13 12:28:26;;;;;;;5.60;1.30;;;28.80;99.90;;;;;;21025202;28;20036;-82
2022/09/13 12:38:59;;;;;;;4.57;1.65;;;28.70;99.90;;;;;;21024784;28;20351;-78
2022/09/13 12:49:21;;;;;;;3.90;1.30;;;27.00;99.90;;;;;;20949728;28;20040;-77
2022/09/13 12:59:46;;;;;;;1.58;1.20;;;27.70;99.90;;;;;;21017661;28;20075;-78
2022/09/13 13:09:53;;;;;;;4.45;1.48;;;27.50;99.90;;;;;;21017484;28;20040;-78
2022/09/13 13:19:55;;;;;;;2.70;1.30;;;26.70;99.90;;;;;;21019437;28;20043;-78
2022/09/13 13:30:39;;;;;;;1.38;1.02;;;26.80;99.90;;;;;;21016751;28;20082;-78
2022/09/13 13:40:40;;;;;;;2.70;1.40;;;26.90;99.90;;;;;;21014020;28;20041;-78
2022/09/13 13:51:14;;;;;;;2.92;1.40;;;27.30;99.90;;;;;;21013100;28;20041;-78
2022/09/13 14:01:21;;;;;;;2.65;1.30;;;27.30;99.90;;;;;;21011422;28;20035;-79
2022/09/13 14:11:47;;;;;;;3.45;1.20;;;27.30;99.90;;;;;;21012135;28;20051;-78
2022/09/13 14:22:20;;;;;;;3.70;1.08;;;28.10;99.90;;;;;;21011834;28;20131;-77
2022/09/13 14:32:24;;;;;;;7.32;1.27;;;27.80;99.90;;;;;;21013302;28;20040;-78
2022/09/13 14:42:26;;;;;;;9.43;1.38;;;27.50;99.90;;;;;;21012327;28;20084;-78
2022/09/13 14:52:34;;;;;;;4.57;1.52;;;27.20;99.90;;;;;;21001487;28;20099;-77
2022/09/13 15:02:38;;;;;;;2.85;1.15;;;27.20;99.90;;;;;;21006296;28;20074;-76
2022/09/13 15:13:09;;;;;;;3.95;1.88;;;26.60;99.90;;;;;;21005111;28;20040;-77
2022/09/13 15:23:15;;;;;;;5.60;1.50;;;26.40;99.90;;;;;;20987401;28;20047;-77
2022/09/13 15:33:24;;;;;;;3.60;1.38;;;25.80;99.90;;;;;;20999160;28;20044;-76
2022/09/13 15:43:24;;;;;;;2.95;1.20;;;25.60;99.90;;;;;;20971762;28;20411;-75
2022/09/13 15:53:25;;;;;;;7.18;1.52;;;25.00;99.90;;;;;;20996492;28;20048;-77
2022/09/13 16:03:26;;;;;;;2.65;1.20;;;24.90;99.90;;;;;;20996378;28;20041;-78
2022/09/13 16:13:28;;;;;;;2.13;1.23;;;25.20;99.90;;;;;;20996024;28;20067;-78
2022/09/13 16:23:29;;;;;;;3.08;1.55;;;25.00;99.90;;;;;;20976009;28;20056;-77
2022/09/13 16:33:30;;;;;;;8.13;1.73;;;24.70;99.90;;;;;;20995797;28;20036;-78
2022/09/13 16:43:31;;;;;;;4.70;1.90;;;24.30;99.90;;;;;;20942672;28;20063;-77
2022/09/13 16:53:34;;;;;;;3.75;1.52;;;23.70;99.90;;;;;;20976916;28;20071;-78
2022/09/13 17:03:36;;;;;;;4.68;1.85;;;23.40;99.90;;;;;;21018686;28;20028;-79
2022/09/13 17:13:38;;;;;;;8.18;1.70;;;23.50;99.90;;;;;;21025440;28;20040;-77
2022/09/13 17:23:39;;;;;;;8.15;1.48;;;23.30;99.90;;;;;;21050167;28;20036;-77
2022/09/13 17:33:40;;;;;;;2.97;1.73;;;23.00;99.90;;;;;;21010351;28;20045;-78
2022/09/13 17:43:42;;;;;;;6.43;1.30;;;23.00;99.90;;;;;;21016713;28;20040;-77
2022/09/13 17:53:45;;;;;;;6.90;1.63;;;22.80;99.90;;;;;;20992500;28;20097;-77
2022/09/13 18:03:46;;;;;;;4.35;1.63;;;22.80;99.90;;;;;;21004021;28;20076;-77
2022/09/13 18:13:47;;;;;;;2.85;1.63;;;22.60;99.90;;;;;;21005067;28;20407;-76
2022/09/13 18:23:51;;;;;;;8.97;2.10;;;22.30;99.90;;;;;;21035319;28;20047;-76
2022/09/13 18:33:57;;;;;;;7.50;1.88;;;21.40;99.90;;;;;;21061089;28;20046;-77
2022/09/13 18:43:58;;;;;;;2.85;1.70;;;21.40;99.90;;;;;;21078124;28;20036;-76
2022/09/13 18:54:00;;;;;;;10.77;1.88;;;21.10;99.90;;;;;;21059180;28;20044;-77
2022/09/13 19:04:16;;;;;;;7.88;2.35;;;21.00;99.90;;;;;;21079697;28;20044;-76
2022/09/13 19:14:22;;;;;;;5.35;2.20;;;20.80;99.90;;;;;;21036344;28;20094;-76
2022/09/13 19:24:23;;;;;;;4.00;2.28;;;20.20;99.90;;;;;;20990204;28;20032;-77
2022/09/13 19:34:24;;;;;;;3.43;1.97;;;20.10;99.90;;;;;;20990503;28;20046;-76
2022/09/13 19:44:25;;;;;;;4.70;1.90;;;20.40;99.90;;;;;;21014618;28;20037;-76
2022/09/13 19:54:26;;;;;;;7.63;2.30;;;20.10;99.90;;;;;;21006741;28;20036;-77
2022/09/13 20:04:28;;;;;;;3.43;2.20;;;20.20;99.90;;;;;;21034028;28;20502;-76
2022/09/13 20:14:30;;;;;;;6.45;2.42;;;20.30;99.90;;;;;;21011084;28;20047;-77
2022/09/13 20:24:31;;;;;;;9.13;2.45;;;20.40;99.90;;;;;;21027964;28;20032;-76
2022/09/13 20:34:33;;;;;;;7.63;2.27;;;20.30;99.90;;;;;;21071091;28;20037;-77
2022/09/13 20:44:34;;;;;;;7.65;2.20;;;20.00;99.90;;;;;;21087048;28;20044;-76
2022/09/13 20:54:35;;;;;;;3.53;2.47;;;19.60;99.90;;;;;;21068116;28;20111;-76
2022/09/13 21:04:39;;;;;;;4.20;2.27;;;19.50;99.90;;;;;;21085775;28;20052;-76
2022/09/13 21:14:40;;;;;;;5.65;2.28;;;19.40;99.90;;;;;;21094103;28;20123;-77
2022/09/13 21:24:41;;;;;;;;;;;19.40;99.90;;;;;;21093331;28;20533;-77
2022/09/13 21:34:42;;;;;;;7.33;2.37;;;19.40;99.90;;;;;;21072835;28;19908;-77
2022/09/13 21:44:44;;;;;;;3.60;2.30;;;19.40;99.90;;;;;;21083555;28;20044;-77
2022/09/13 21:54:44;;;;;;;;;;;19.50;99.90;;;;;;21103532;28;20040;-77
2022/09/13 22:04:45;;;;;;;6.57;2.50;;;19.20;99.90;;;;;;21081757;28;19919;-77
2022/09/13 22:14:47;;;;;;;9.17;2.50;;;19.30;99.90;;;;;;21099232;28;20040;-77
2022/09/13 22:24:48;;;;;;;2.60;2.00;;;19.40;99.90;;;;;;21099682;28;20063;-76
2022/09/13 22:34:48;;;;;;;11.07;2.50;;;19.40;99.90;;;;;;21098456;28;20028;-76
2022/09/13 22:44:49;;;;;;;3.23;2.07;;;19.20;99.90;;;;;;21078248;28;20047;-77
2022/09/13 22:54:50;;;;;;;4.93;2.47;;;19.10;99.90;;;;;;21081572;28;20043;-78
2022/09/13 23:04:51;;;;;;;3.97;2.30;;;19.20;99.90;;;;;;21058768;28;20421;-76
2022/09/13 23:14:52;;;;;;;8.30;3.63;;;19.30;99.90;;;;;;21094740;28;20285;-76
2022/09/13 23:24:53;;;;;;;9.10;3.63;;;19.00;99.90;;;;;;21071353;28;20042;-77
2022/09/13 23:34:53;;;;;;;6.93;2.60;;;18.80;99.90;;;;;;21070461;28;20047;-77
2022/09/13 23:44:54;;;;;;;11.47;2.50;;;18.70;99.90;;;;;;21067787;28;20132;-77
2022/09/13 23:54:55;;;;;;;6.23;2.57;;;18.90;99.90;;;;;;21056520;28;20132;-77
